sensor_id;sensor_type;location;lat;lon;timestamp;pressure;altitude;pressure_sealevel;temperature;humidity
57232;BME280;43488;46.934;8.276;2023-05-10T00:00:26;96149.47;;;14.44;100.00
57232;BME280;43488;46.934;8.276;2023-05-10T00:02:54;96147.31;;;14.41;100.00
57232;BME280;43488;46.934;8.276;2023-05-10T00:05:23;96147.06;;;14.43;100.00
57232;BME280;43488;46.934;8.276;2023-05-10T00:07:51;96149.72;;;14.43;100.00
57232;BME280;43488;46.934;8.276;2023-05-10T00:10:18;96150.88;;;14.47;100.00
57232;BME280;43488;46.934;8.276;2023-05-10T00:12:45;96147.69;;;14.45;100.00
57232;BME280;43488;46.934;8.276;2023-05-10T00:15:12;96149.28;;;14.46;100.00
57232;BME280;43488;46.934;8.276;2023-05-10T00:17:40;96147.06;;;14.43;100.00
57232;BME280;43488;46.934;8.276;2023-05-10T00:20:07;96147.06;;;14.43;100.00
57232;BME280;43488;46.934;8.276;2023-05-10T00:22:35;96147.53;;;14.40;100.00
57232;BME280;43488;46.934;8.276;2023-05-10T00:25:02;96156.28;;;14.40;100.00
57232;BME280;43488;46.934;8.276;2023-05-10T00:27:30;96144.09;;;14.39;100.00
57232;BME280;43488;46.934;8.276;2023-05-10T00:29:57;96153.53;;;14.35;100.00
57232;BME280;43488;46.934;8.276;2023-05-10T00:32:25;96148.03;;;14.37;100.00
57232;BME280;43488;46.934;8.276;2023-05-10T00:34:52;96155.72;;;14.38;100.00
57232;BME280;43488;46.934;8.276;2023-05-10T00:37:19;96149.41;;;14.39;100.00
57232;BME280;43488;46.934;8.276;2023-05-10T00:39:46;96156.78;;;14.37;100.00
57232;BME280;43488;46.934;8.276;2023-05-10T00:42:14;96149.88;;;14.36;100.00
57232;BME280;43488;46.934;8.276;2023-05-10T00:44:41;96159.66;;;14.36;100.00
57232;BME280;43488;46.934;8.276;2023-05-10T00:47:09;96157.81;;;14.36;100.00
57232;BME280;43488;46.934;8.276;2023-05-10T00:49:37;96150.03;;;14.30;100.00
57232;BME280;43488;46.934;8.276;2023-05-10T00:52:05;96157.16;;;14.29;100.00
57232;BME280;43488;46.934;8.276;2023-05-10T00:54:33;96162.47;;;14.29;100.00
57232;BME280;43488;46.934;8.276;2023-05-10T00:57:01;96165.00;;;14.24;100.00
57232;BME280;43488;46.934;8.276;2023-05-10T00:59:29;96157.25;;;14.17;100.00
57232;BME280;43488;46.934;8.276;2023-05-10T01:01:58;96165.41;;;14.16;100.00
57232;BME280;43488;46.934;8.276;2023-05-10T01:04:25;96160.44;;;14.19;100.00
57232;BME280;43488;46.934;8.276;2023-05-10T01:06:53;96171.34;;;14.23;100.00
57232;BME280;43488;46.934;8.276;2023-05-10T01:09:22;96163.91;;;14.20;100.00
57232;BME280;43488;46.934;8.276;2023-05-10T01:11:49;96164.84;;;14.14;100.00
57232;BME280;43488;46.934;8.276;2023-05-10T01:14:18;96160.03;;;14.11;100.00
57232;BME280;43488;46.934;8.276;2023-05-10T01:16:48;96163.22;;;14.13;100.00
57232;BME280;43488;46.934;8.276;2023-05-10T01:19:22;96160.03;;;14.11;100.00
57232;BME280;43488;46.934;8.276;2023-05-10T01:34:14;96171.38;;;13.94;100.00
57232;BME280;43488;46.934;8.276;2023-05-10T01:36:55;96161.59;;;13.95;100.00
57232;BME280;43488;46.934;8.276;2023-05-10T01:42:17;96167.81;;;13.89;100.00
57232;BME280;43488;46.934;8.276;2023-05-10T01:47:42;96170.13;;;13.85;100.00
57232;BME280;43488;46.934;8.276;2023-05-10T01:50:18;96165.66;;;13.86;100.00
57232;BME280;43488;46.934;8.276;2023-05-10T01:52:52;96169.47;;;13.78;100.00
57232;BME280;43488;46.934;8.276;2023-05-10T01:55:30;96179.16;;;13.73;100.00
57232;BME280;43488;46.934;8.276;2023-05-10T01:58:09;96171.66;;;13.70;100.00
57232;BME280;43488;46.934;8.276;2023-05-10T02:00:42;96170.19;;;13.74;100.00
57232;BME280;43488;46.934;8.276;2023-05-10T02:03:11;96165.44;;;13.76;100.00
57232;BME280;43488;46.934;8.276;2023-05-10T02:05:41;96172.47;;;13.70;100.00
57232;BME280;43488;46.934;8.276;2023-05-10T02:08:11;96166.75;;;13.73;100.00
57232;BME280;43488;46.934;8.276;2023-05-10T02:10:41;96168.94;;;13.64;100.00
57232;BME280;43488;46.934;8.276;2023-05-10T02:13:10;96165.75;;;13.62;100.00
57232;BME280;43488;46.934;8.276;2023-05-10T02:15:40;96172.41;;;13.65;100.00
57232;BME280;43488;46.934;8.276;2023-05-10T02:18:09;96171.09;;;13.68;100.00
57232;BME280;43488;46.934;8.276;2023-05-10T02:20:40;96181.44;;;13.69;100.00
57232;BME280;43488;46.934;8.276;2023-05-10T02:23:09;96176.97;;;13.70;100.00
57232;BME280;43488;46.934;8.276;2023-05-10T02:25:38;96178.34;;;13.72;100.00
57232;BME280;43488;46.934;8.276;2023-05-10T02:28:09;96172.94;;;13.67;100.00
57232;BME280;43488;46.934;8.276;2023-05-10T02:30:38;96173.75;;;13.68;100.00
57232;BME280;43488;46.934;8.276;2023-05-10T02:33:06;96168.94;;;13.64;100.00
57232;BME280;43488;46.934;8.276;2023-05-10T02:35:35;96177.13;;;13.63;100.00
57232;BME280;43488;46.934;8.276;2023-05-10T02:38:04;96177.44;;;13.66;100.00
57232;BME280;43488;46.934;8.276;2023-05-10T02:40:33;96174.78;;;13.66;100.00
57232;BME280;43488;46.934;8.276;2023-05-10T02:43:04;96181.13;;;13.65;100.00
57232;BME280;43488;46.934;8.276;2023-05-10T02:45:35;96178.72;;;13.64;100.00
57232;BME280;43488;46.934;8.276;2023-05-10T02:48:03;96182.84;;;13.60;100.00
57232;BME280;43488;46.934;8.276;2023-05-10T02:50:33;96182.63;;;13.61;100.00
57232;BME280;43488;46.934;8.276;2023-05-10T02:53:03;96193.66;;;13.58;100.00
57232;BME280;43488;46.934;8.276;2023-05-10T02:55:38;96191.03;;;13.58;100.00
57232;BME280;43488;46.934;8.276;2023-05-10T02:58:06;96183.09;;;13.58;100.00
57232;BME280;43488;46.934;8.276;2023-05-10T03:00:34;96174.34;;;13.58;100.00
57232;BME280;43488;46.934;8.276;2023-05-10T03:03:02;96175.63;;;13.55;100.00
57232;BME280;43488;46.934;8.276;2023-05-10T03:05:30;96179.22;;;13.49;100.00
57232;BME280;43488;46.934;8.276;2023-05-10T03:07:58;96171.41;;;13.43;100.00
57232;BME280;43488;46.934;8.276;2023-05-10T03:10:30;96186.47;;;13.42;100.00
57232;BME280;43488;46.934;8.276;2023-05-10T03:16:41;96184.84;;;13.41;100.00
57232;BME280;43488;46.934;8.276;2023-05-10T03:19:26;96177.38;;;13.38;100.00
57232;BME280;43488;46.934;8.276;2023-05-10T03:21:56;96189.81;;;13.37;100.00
57232;BME280;43488;46.934;8.276;2023-05-10T03:24:27;96184.53;;;13.37;100.00
57232;BME280;43488;46.934;8.276;2023-05-10T03:26:56;96183.25;;;13.40;100.00
57232;BME280;43488;46.934;8.276;2023-05-10T03:29:29;96196.59;;;13.45;100.00
57232;BME280;43488;46.934;8.276;2023-05-10T03:31:59;96183.13;;;13.47;100.00
57232;BME280;43488;46.934;8.276;2023-05-10T03:34:26;96184.25;;;13.51;100.00
57232;BME280;43488;46.934;8.276;2023-05-10T03:36:57;96177.03;;;13.46;100.00
57232;BME280;43488;46.934;8.276;2023-05-10T03:39:24;96181.41;;;13.41;100.00
57232;BME280;43488;46.934;8.276;2023-05-10T03:41:52;96190.69;;;13.43;100.00
57232;BME280;43488;46.934;8.276;2023-05-10T03:44:20;96199.00;;;13.47;100.00
57232;BME280;43488;46.934;8.276;2023-05-10T03:46:47;96185.22;;;13.45;100.00
57232;BME280;43488;46.934;8.276;2023-05-10T03:49:16;96191.19;;;13.40;100.00
57232;BME280;43488;46.934;8.276;2023-05-10T03:51:43;96188.78;;;13.38;100.00
57232;BME280;43488;46.934;8.276;2023-05-10T03:54:11;96184.97;;;13.34;100.00
57232;BME280;43488;46.934;8.276;2023-05-10T03:56:39;96186.81;;;13.34;100.00
57232;BME280;43488;46.934;8.276;2023-05-10T03:59:07;96187.19;;;13.26;100.00
57232;BME280;43488;46.934;8.276;2023-05-10T04:01:35;96189.25;;;13.24;100.00
57232;BME280;43488;46.934;8.276;2023-05-10T04:04:03;96180.88;;;13.27;100.00
57232;BME280;43488;46.934;8.276;2023-05-10T04:06:49;96187.28;;;13.31;100.00
57232;BME280;43488;46.934;8.276;2023-05-10T04:09:19;96185.22;;;13.21;100.00
57232;BME280;43488;46.934;8.276;2023-05-10T04:11:46;96185.56;;;13.25;100.00
57232;BME280;43488;46.934;8.276;2023-05-10T04:14:13;96183.50;;;13.27;100.00
57232;BME280;43488;46.934;8.276;2023-05-10T04:16:41;96184.06;;;13.29;100.00
57232;BME280;43488;46.934;8.276;2023-05-10T04:19:12;96186.25;;;13.32;100.00
57232;BME280;43488;46.934;8.276;2023-05-10T04:21:39;96183.03;;;13.30;100.00
57232;BME280;43488;46.934;8.276;2023-05-10T04:24:07;96194.41;;;13.30;100.00
57232;BME280;43488;46.934;8.276;2023-05-10T04:26:34;96204.19;;;13.30;100.00
57232;BME280;43488;46.934;8.276;2023-05-10T04:29:01;96203.63;;;13.28;100.00
57232;BME280;43488;46.934;8.276;2023-05-10T04:31:29;96215.22;;;13.27;100.00
57232;BME280;43488;46.934;8.276;2023-05-10T04:33:56;96218.44;;;13.29;100.00
57232;BME280;43488;46.934;8.276;2023-05-10T04:36:23;96214.63;;;13.25;100.00
57232;BME280;43488;46.934;8.276;2023-05-10T04:38:51;96206.00;;;13.18;100.00
57232;BME280;43488;46.934;8.276;2023-05-10T04:41:18;96203.56;;;13.16;100.00
57232;BME280;43488;46.934;8.276;2023-05-10T04:43:47;96203.16;;;13.19;100.00
57232;BME280;43488;46.934;8.276;2023-05-10T04:46:16;96206.69;;;13.13;100.00
57232;BME280;43488;46.934;8.276;2023-05-10T04:48:43;96206.13;;;13.11;100.00
57232;BME280;43488;46.934;8.276;2023-05-10T04:51:11;96206.00;;;13.06;100.00
57232;BME280;43488;46.934;8.276;2023-05-10T04:53:39;96213.59;;;13.02;100.00
57232;BME280;43488;46.934;8.276;2023-05-10T04:56:06;96211.50;;;13.04;100.00
57232;BME280;43488;46.934;8.276;2023-05-10T04:58:34;96225.75;;;13.03;100.00
57232;BME280;43488;46.934;8.276;2023-05-10T05:01:08;96227.47;;;12.98;100.00
57232;BME280;43488;46.934;8.276;2023-05-10T05:03:35;96233.56;;;12.98;100.00
57232;BME280;43488;46.934;8.276;2023-05-10T05:06:06;96232.75;;;12.98;100.00
57232;BME280;43488;46.934;8.276;2023-05-10T05:08:34;96234.72;;;13.02;100.00
57232;BME280;43488;46.934;8.276;2023-05-10T05:11:02;96240.56;;;13.04;100.00
57232;BME280;43488;46.934;8.276;2023-05-10T05:13:29;96237.94;;;13.04;100.00
57232;BME280;43488;46.934;8.276;2023-05-10T05:15:56;96246.78;;;13.10;100.00
57232;BME280;43488;46.934;8.276;2023-05-10T05:18:24;96243.34;;;13.09;100.00
57232;BME280;43488;46.934;8.276;2023-05-10T05:20:51;96233.91;;;13.14;100.00
57232;BME280;43488;46.934;8.276;2023-05-10T05:23:18;96240.94;;;13.08;100.00
57232;BME280;43488;46.934;8.276;2023-05-10T05:25:47;96243.69;;;13.01;100.00
57232;BME280;43488;46.934;8.276;2023-05-10T05:28:14;96247.69;;;13.04;100.00
57232;BME280;43488;46.934;8.276;2023-05-10T05:30:42;96252.41;;;13.02;100.00
57232;BME280;43488;46.934;8.276;2023-05-10T05:33:09;96248.75;;;13.03;100.00
57232;BME280;43488;46.934;8.276;2023-05-10T05:35:36;96254.81;;;13.03;100.00
57232;BME280;43488;46.934;8.276;2023-05-10T05:38:03;96255.84;;;13.02;100.00
57232;BME280;43488;46.934;8.276;2023-05-10T05:40:31;96254.25;;;13.01;100.00
57232;BME280;43488;46.934;8.276;2023-05-10T05:42:58;96248.97;;;13.01;100.00
57232;BME280;43488;46.934;8.276;2023-05-10T05:45:27;96256.66;;;13.03;100.00
57232;BME280;43488;46.934;8.276;2023-05-10T05:47:55;96251.16;;;13.04;100.00
57232;BME280;43488;46.934;8.276;2023-05-10T05:50:26;96256.56;;;13.09;100.00
57232;BME280;43488;46.934;8.276;2023-05-10T05:52:53;96263.72;;;13.21;100.00
57232;BME280;43488;46.934;8.276;2023-05-10T05:55:21;96257.63;;;13.20;100.00
57232;BME280;43488;46.934;8.276;2023-05-10T05:57:49;96261.63;;;13.23;100.00
57232;BME280;43488;46.934;8.276;2023-05-10T06:00:17;96267.28;;;13.26;100.00
57232;BME280;43488;46.934;8.276;2023-05-10T06:02:45;96265.31;;;13.22;100.00
57232;BME280;43488;46.934;8.276;2023-05-10T06:05:16;96271.41;;;13.22;100.00
57232;BME280;43488;46.934;8.276;2023-05-10T06:07:45;96275.53;;;13.18;100.00
57232;BME280;43488;46.934;8.276;2023-05-10T06:10:13;96272.28;;;13.16;100.00
57232;BME280;43488;46.934;8.276;2023-05-10T06:12:40;96282.44;;;13.19;100.00
57232;BME280;43488;46.934;8.276;2023-05-10T06:15:09;96285.56;;;13.28;100.00
57232;BME280;43488;46.934;8.276;2023-05-10T06:17:36;96286.25;;;13.35;100.00
57232;BME280;43488;46.934;8.276;2023-05-10T06:20:04;96283.63;;;13.35;100.00
57232;BME280;43488;46.934;8.276;2023-05-10T06:22:32;96278.91;;;13.37;100.00
57232;BME280;43488;46.934;8.276;2023-05-10T06:24:59;96277.38;;;13.41;100.00
57232;BME280;43488;46.934;8.276;2023-05-10T06:27:26;96280.03;;;13.41;100.00
57232;BME280;43488;46.934;8.276;2023-05-10T06:29:56;96285.31;;;13.41;100.00
57232;BME280;43488;46.934;8.276;2023-05-10T06:32:23;96285.69;;;13.45;100.00
57232;BME280;43488;46.934;8.276;2023-05-10T06:34:50;96280.16;;;13.46;100.00
57232;BME280;43488;46.934;8.276;2023-05-10T06:37:20;96279.59;;;13.44;100.00
57232;BME280;43488;46.934;8.276;2023-05-10T06:39:51;96286.59;;;13.38;100.00
57232;BME280;43488;46.934;8.276;2023-05-10T06:42:19;96273.63;;;13.37;100.00
57232;BME280;43488;46.934;8.276;2023-05-10T06:44:47;96287.16;;;13.41;100.00
57232;BME280;43488;46.934;8.276;2023-05-10T06:47:14;96294.53;;;13.38;100.00
57232;BME280;43488;46.934;8.276;2023-05-10T06:49:41;96297.88;;;13.46;100.00
57232;BME280;43488;46.934;8.276;2023-05-10T06:52:09;96299.91;;;13.44;100.00
57232;BME280;43488;46.934;8.276;2023-05-10T06:54:36;96301.88;;;13.48;100.00
57232;BME280;43488;46.934;8.276;2023-05-10T06:57:03;96297.28;;;13.44;100.00
57232;BME280;43488;46.934;8.276;2023-05-10T06:59:30;96303.25;;;13.39;100.00
57232;BME280;43488;46.934;8.276;2023-05-10T07:01:58;96307.75;;;13.38;100.00
57232;BME280;43488;46.934;8.276;2023-05-10T07:04:25;96301.66;;;13.38;100.00
57232;BME280;43488;46.934;8.276;2023-05-10T07:06:54;96311.31;;;13.32;100.00
57232;BME280;43488;46.934;8.276;2023-05-10T07:09:22;96306.00;;;13.32;100.00
57232;BME280;43488;46.934;8.276;2023-05-10T07:11:51;96323.03;;;13.36;100.00
57232;BME280;43488;46.934;8.276;2023-05-10T07:14:18;96320.25;;;13.31;100.00
57232;BME280;43488;46.934;8.276;2023-05-10T07:16:46;96316.47;;;13.39;100.00
57232;BME280;43488;46.934;8.276;2023-05-10T07:19:16;96318.09;;;13.40;100.00
57232;BME280;43488;46.934;8.276;2023-05-10T07:21:43;96318.56;;;13.49;100.00
57232;BME280;43488;46.934;8.276;2023-05-10T07:24:11;96319.81;;;13.58;100.00
57232;BME280;43488;46.934;8.276;2023-05-10T07:26:38;96312.00;;;13.51;100.00
57232;BME280;43488;46.934;8.276;2023-05-10T07:29:05;96315.91;;;13.37;100.00
57232;BME280;43488;46.934;8.276;2023-05-10T07:31:32;96314.75;;;13.33;100.00
57232;BME280;43488;46.934;8.276;2023-05-10T07:34:02;96303.84;;;13.41;100.00
57232;BME280;43488;46.934;8.276;2023-05-10T07:36:30;96316.25;;;13.41;100.00
57232;BME280;43488;46.934;8.276;2023-05-10T07:38:59;96320.16;;;13.50;100.00
57232;BME280;43488;46.934;8.276;2023-05-10T07:41:31;96316.59;;;13.56;100.00
57232;BME280;43488;46.934;8.276;2023-05-10T07:43:59;96328.56;;;13.58;100.00
57232;BME280;43488;46.934;8.276;2023-05-10T07:46:26;96323.59;;;13.62;100.00
57232;BME280;43488;46.934;8.276;2023-05-10T07:48:53;96328.44;;;13.65;100.00
57232;BME280;43488;46.934;8.276;2023-05-10T07:51:21;96335.44;;;13.59;100.00
57232;BME280;43488;46.934;8.276;2023-05-10T07:53:51;96338.00;;;13.66;100.00
57232;BME280;43488;46.934;8.276;2023-05-10T07:56:30;96334.53;;;13.65;100.00
57232;BME280;43488;46.934;8.276;2023-05-10T07:59:03;96337.19;;;13.65;100.00
57232;BME280;43488;46.934;8.276;2023-05-10T08:01:33;96331.09;;;13.77;100.00
57232;BME280;43488;46.934;8.276;2023-05-10T08:04:02;96331.09;;;13.77;100.00
57232;BME280;43488;46.934;8.276;2023-05-10T08:06:29;96335.09;;;13.91;100.00
57232;BME280;43488;46.934;8.276;2023-05-10T08:08:57;96333.59;;;13.95;100.00
57232;BME280;43488;46.934;8.276;2023-05-10T08:11:24;96335.56;;;13.88;100.00
57232;BME280;43488;46.934;8.276;2023-05-10T08:13:54;96327.16;;;13.91;100.00
57232;BME280;43488;46.934;8.276;2023-05-10T08:16:22;96334.63;;;13.94;100.00
57232;BME280;43488;46.934;8.276;2023-05-10T08:21:18;96333.13;;;13.98;100.00
57232;BME280;43488;46.934;8.276;2023-05-10T08:26:22;96336.72;;;13.92;100.00
57232;BME280;43488;46.934;8.276;2023-05-10T08:28:50;96340.41;;;13.91;100.00
57232;BME280;43488;46.934;8.276;2023-05-10T08:31:17;96330.63;;;13.91;100.00
57232;BME280;43488;46.934;8.276;2023-05-10T08:33:45;96323.38;;;13.87;100.00
57232;BME280;43488;46.934;8.276;2023-05-10T08:36:12;96328.22;;;13.90;100.00
57232;BME280;43488;46.934;8.276;2023-05-10T08:38:41;96339.69;;;13.95;100.00
57232;BME280;43488;46.934;8.276;2023-05-10T08:41:09;96336.69;;;14.04;100.00
57232;BME280;43488;46.934;8.276;2023-05-10T08:43:37;96336.00;;;14.08;100.00
57232;BME280;43488;46.934;8.276;2023-05-10T08:46:07;96346.22;;;14.16;100.00
57232;BME280;43488;46.934;8.276;2023-05-10T08:48:36;96342.06;;;14.20;100.00
57232;BME280;43488;46.934;8.276;2023-05-10T08:51:08;96341.28;;;14.20;100.00
57232;BME280;43488;46.934;8.276;2023-05-10T08:53:37;96335.72;;;14.21;100.00
57232;BME280;43488;46.934;8.276;2023-05-10T08:56:06;96329.59;;;14.33;100.00
57232;BME280;43488;46.934;8.276;2023-05-10T08:58:35;96333.72;;;14.40;100.00
57232;BME280;43488;46.934;8.276;2023-05-10T09:01:10;96329.00;;;14.42;100.00
57232;BME280;43488;46.934;8.276;2023-05-10T09:03:39;96333.19;;;14.27;100.00
57232;BME280;43488;46.934;8.276;2023-05-10T09:06:07;96338.63;;;14.20;100.00
57232;BME280;43488;46.934;8.276;2023-05-10T09:08:36;96331.56;;;14.26;100.00
57232;BME280;43488;46.934;8.276;2023-05-10T09:11:04;96341.50;;;14.18;100.00
57232;BME280;43488;46.934;8.276;2023-05-10T09:13:32;96331.97;;;14.06;100.00
57232;BME280;43488;46.934;8.276;2023-05-10T09:16:00;96337.38;;;14.11;100.00
57232;BME280;43488;46.934;8.276;2023-05-10T09:18:31;96343.50;;;14.00;100.00
57232;BME280;43488;46.934;8.276;2023-05-10T09:20:59;96344.50;;;13.99;100.00
57232;BME280;43488;46.934;8.276;2023-05-10T09:23:27;96337.31;;;13.82;100.00
57232;BME280;43488;46.934;8.276;2023-05-10T09:26:03;96357.44;;;13.83;100.00
57232;BME280;43488;46.934;8.276;2023-05-10T09:28:49;96339.72;;;13.60;100.00
57232;BME280;43488;46.934;8.276;2023-05-10T09:31:17;96339.59;;;13.55;100.00
57232;BME280;43488;46.934;8.276;2023-05-10T09:33:46;96342.94;;;13.51;100.00
57232;BME280;43488;46.934;8.276;2023-05-10T09:36:15;96344.19;;;13.48;100.00
57232;BME280;43488;46.934;8.276;2023-05-10T09:38:51;96345.00;;;13.49;100.00
57232;BME280;43488;46.934;8.276;2023-05-10T09:41:23;96354.78;;;13.48;100.00
57232;BME280;43488;46.934;8.276;2023-05-10T09:43:56;96348.44;;;13.49;100.00
57232;BME280;43488;46.934;8.276;2023-05-10T09:46:24;96344.75;;;13.50;100.00
57232;BME280;43488;46.934;8.276;2023-05-10T09:48:55;96345.34;;;13.52;100.00
57232;BME280;43488;46.934;8.276;2023-05-10T09:51:24;96340.75;;;13.59;100.00
57232;BME280;43488;46.934;8.276;2023-05-10T09:54:12;96336.38;;;13.77;100.00
57232;BME280;43488;46.934;8.276;2023-05-10T09:56:40;96338.09;;;13.59;100.00
57232;BME280;43488;46.934;8.276;2023-05-10T09:59:11;96341.91;;;13.63;100.00
57232;BME280;43488;46.934;8.276;2023-05-10T10:01:40;96340.97;;;13.58;100.00
57232;BME280;43488;46.934;8.276;2023-05-10T10:04:13;96343.84;;;13.68;100.00
57232;BME280;43488;46.934;8.276;2023-05-10T10:06:42;96340.97;;;13.81;100.00
57232;BME280;43488;46.934;8.276;2023-05-10T10:09:11;96342.94;;;13.74;100.00
57232;BME280;43488;46.934;8.276;2023-05-10T10:11:40;96345.81;;;13.61;100.00
57232;BME280;43488;46.934;8.276;2023-05-10T10:14:11;96343.28;;;13.54;100.00
57232;BME280;43488;46.934;8.276;2023-05-10T10:16:42;96344.88;;;13.44;100.00
57232;BME280;43488;46.934;8.276;2023-05-10T10:19:21;96350.84;;;13.27;100.00
57232;BME280;43488;46.934;8.276;2023-05-10T10:21:50;96350.63;;;13.29;100.00
57232;BME280;43488;46.934;8.276;2023-05-10T10:24:20;96349.34;;;13.20;100.00
57232;BME280;43488;46.934;8.276;2023-05-10T10:26:49;96343.06;;;13.14;100.00
57232;BME280;43488;46.934;8.276;2023-05-10T10:29:44;96343.53;;;13.11;100.00
57232;BME280;43488;46.934;8.276;2023-05-10T10:32:33;96351.97;;;13.20;100.00
57232;BME280;43488;46.934;8.276;2023-05-10T10:35:08;96361.34;;;13.16;100.00
57232;BME280;43488;46.934;8.276;2023-05-10T10:37:47;96362.81;;;13.30;100.00
57232;BME280;43488;46.934;8.276;2023-05-10T10:40:32;96353.84;;;13.31;100.00
57232;BME280;43488;46.934;8.276;2023-05-10T10:43:25;96363.94;;;13.22;100.00
57232;BME280;43488;46.934;8.276;2023-05-10T10:48:29;96366.50;;;13.41;100.00
57232;BME280;43488;46.934;8.276;2023-05-10T10:50:57;96359.94;;;13.43;100.00
57232;BME280;43488;46.934;8.276;2023-05-10T10:53:28;96346.97;;;13.53;100.00
57232;BME280;43488;46.934;8.276;2023-05-10T10:56:23;96341.34;;;13.73;100.00
57232;BME280;43488;46.934;8.276;2023-05-10T10:59:11;96340.06;;;13.76;100.00
57232;BME280;43488;46.934;8.276;2023-05-10T11:01:45;96331.28;;;13.99;100.00
57232;BME280;43488;46.934;8.276;2023-05-10T11:04:24;96339.16;;;14.34;100.00
57232;BME280;43488;46.934;8.276;2023-05-10T11:07:18;96332.81;;;14.46;100.00
57232;BME280;43488;46.934;8.276;2023-05-10T11:09:48;96332.22;;;14.56;99.30
57232;BME280;43488;46.934;8.276;2023-05-10T11:12:16;96339.34;;;14.56;98.63
57232;BME280;43488;46.934;8.276;2023-05-10T11:14:50;96336.34;;;14.64;99.53
57232;BME280;43488;46.934;8.276;2023-05-10T11:17:31;96341.53;;;14.59;100.00
57232;BME280;43488;46.934;8.276;2023-05-10T11:20:10;96341.00;;;14.33;96.86
57232;BME280;43488;46.934;8.276;2023-05-10T11:22:52;96352.50;;;14.39;96.06
57232;BME280;43488;46.934;8.276;2023-05-10T11:25:26;96345.59;;;14.38;96.76
57232;BME280;43488;46.934;8.276;2023-05-10T11:27:55;96353.88;;;14.41;98.96
57232;BME280;43488;46.934;8.276;2023-05-10T11:30:24;96343.88;;;14.32;98.84
57232;BME280;43488;46.934;8.276;2023-05-10T11:32:53;96345.59;;;14.26;100.00
57232;BME280;43488;46.934;8.276;2023-05-10T11:35:20;96341.03;;;14.21;100.00
57232;BME280;43488;46.934;8.276;2023-05-10T11:37:48;96333.66;;;14.23;100.00
57232;BME280;43488;46.934;8.276;2023-05-10T11:40:18;96327.69;;;14.16;100.00
57232;BME280;43488;46.934;8.276;2023-05-10T11:42:49;96340.34;;;14.14;100.00
57232;BME280;43488;46.934;8.276;2023-05-10T11:45:17;96342.75;;;14.28;99.57
57232;BME280;43488;46.934;8.276;2023-05-10T11:47:45;96346.44;;;14.27;99.94
57232;BME280;43488;46.934;8.276;2023-05-10T11:50:26;96354.03;;;14.23;96.13
57232;BME280;43488;46.934;8.276;2023-05-10T11:53:01;96356.03;;;14.04;98.60
57232;BME280;43488;46.934;8.276;2023-05-10T11:55:54;96356.13;;;13.98;96.83
57232;BME280;43488;46.934;8.276;2023-05-10T11:58:30;96357.19;;;14.08;96.42
57232;BME280;43488;46.934;8.276;2023-05-10T12:01:01;96356.69;;;14.23;97.62
57232;BME280;43488;46.934;8.276;2023-05-10T12:04:26;96358.97;;;14.31;95.95
57232;BME280;43488;46.934;8.276;2023-05-10T12:06:56;96344.53;;;14.50;94.14
57232;BME280;43488;46.934;8.276;2023-05-10T12:09:24;96344.31;;;14.52;92.82
57232;BME280;43488;46.934;8.276;2023-05-10T12:12:00;96342.63;;;14.46;93.86
57232;BME280;43488;46.934;8.276;2023-05-10T12:14:36;96331.34;;;14.67;92.22
57232;BME280;43488;46.934;8.276;2023-05-10T12:17:03;96348.91;;;14.85;92.31
57232;BME280;43488;46.934;8.276;2023-05-10T12:19:40;96341.91;;;14.79;93.24
57232;BME280;43488;46.934;8.276;2023-05-10T12:22:09;96337.16;;;14.81;92.02
57232;BME280;43488;46.934;8.276;2023-05-10T12:24:37;96343.22;;;14.93;97.01
57232;BME280;43488;46.934;8.276;2023-05-10T12:27:10;96338.00;;;15.15;94.81
57232;BME280;43488;46.934;8.276;2023-05-10T12:29:41;96332.31;;;15.23;90.44
57232;BME280;43488;46.934;8.276;2023-05-10T12:32:12;96331.03;;;15.59;91.99
57232;BME280;43488;46.934;8.276;2023-05-10T12:34:39;96335.06;;;15.62;90.46
57232;BME280;43488;46.934;8.276;2023-05-10T12:37:07;96332.56;;;15.55;88.83
57232;BME280;43488;46.934;8.276;2023-05-10T12:39:44;96332.06;;;15.58;87.36
57232;BME280;43488;46.934;8.276;2023-05-10T12:42:12;96329.53;;;15.63;87.03
57232;BME280;43488;46.934;8.276;2023-05-10T12:44:40;96334.59;;;15.65;85.86
57232;BME280;43488;46.934;8.276;2023-05-10T12:47:08;96335.63;;;15.47;83.67
57232;BME280;43488;46.934;8.276;2023-05-10T12:49:36;96341.34;;;15.56;84.43
57232;BME280;43488;46.934;8.276;2023-05-10T12:52:03;96330.06;;;15.49;87.19
57232;BME280;43488;46.934;8.276;2023-05-10T12:54:31;96340.13;;;15.47;88.43
57232;BME280;43488;46.934;8.276;2023-05-10T12:56:58;96349.94;;;15.29;86.52
57232;BME280;43488;46.934;8.276;2023-05-10T12:59:25;96348.38;;;15.17;88.00
57232;BME280;43488;46.934;8.276;2023-05-10T13:01:52;96348.13;;;15.01;91.68
57232;BME280;43488;46.934;8.276;2023-05-10T13:04:22;96338.16;;;15.08;91.30
57232;BME280;43488;46.934;8.276;2023-05-10T13:06:49;96337.16;;;15.10;91.37
57232;BME280;43488;46.934;8.276;2023-05-10T13:09:16;96325.16;;;15.24;93.58
57232;BME280;43488;46.934;8.276;2023-05-10T13:11:45;96329.34;;;15.20;93.99
57232;BME280;43488;46.934;8.276;2023-05-10T13:14:14;96320.66;;;15.24;93.56
57232;BME280;43488;46.934;8.276;2023-05-10T13:16:42;96328.22;;;15.32;93.58
57232;BME280;43488;46.934;8.276;2023-05-10T13:19:09;96329.28;;;15.31;91.65
57232;BME280;43488;46.934;8.276;2023-05-10T13:21:38;96325.50;;;15.27;90.87
57232;BME280;43488;46.934;8.276;2023-05-10T13:24:08;96336.09;;;15.11;91.07
57232;BME280;43488;46.934;8.276;2023-05-10T13:26:51;96333.09;;;15.07;88.87
57232;BME280;43488;46.934;8.276;2023-05-10T13:29:41;96332.50;;;14.88;90.47
57232;BME280;43488;46.934;8.276;2023-05-10T13:32:08;96332.47;;;14.71;90.04
57232;BME280;43488;46.934;8.276;2023-05-10T13:34:35;96332.47;;;14.71;93.06
57232;BME280;43488;46.934;8.276;2023-05-10T13:37:14;96327.78;;;14.62;93.01